createdAt,value
2022-09-24T00:01:45.942Z,80.90
2022-09-24T00:04:47.950Z,80.70
2022-09-24T00:07:49.935Z,80.20
2022-09-24T00:10:51.941Z,80.90
2022-09-24T00:13:55.904Z,81.40
2022-09-24T00:16:58.076Z,81.80
2022-09-24T00:20:00.125Z,82.00
2022-09-24T00:23:03.491Z,82.10
2022-09-24T00:26:06.830Z,82.30
2022-09-24T00:29:12.650Z,81.30
2022-09-24T00:32:14.597Z,80.60
2022-09-24T00:35:16.688Z,81.10
2022-09-24T00:38:18.841Z,81.50
2022-09-24T00:41:23.213Z,81.90
2022-09-24T00:44:47.216Z,82.00
2022-09-24T00:47:50.879Z,81.90
2022-09-24T00:50:53.042Z,81.60
2022-09-24T00:54:00.770Z,82.20
2022-09-24T00:57:02.831Z,81.90
2022-09-24T01:00:06.337Z,82.10
2022-09-24T01:03:14.334Z,82.20
2022-09-24T01:06:16.494Z,81.80
2022-09-24T01:09:21.394Z,82.10
2022-09-24T01:12:57.162Z,82.00
2022-09-24T01:16:09.547Z,82.10
2022-09-24T01:19:33.110Z,82.00
2022-09-24T01:23:19.271Z,82.10
2022-09-24T01:26:52.537Z,82.70
2022-09-24T01:30:05.662Z,83.60
2022-09-24T01:33:16.268Z,83.70
2022-09-24T01:36:18.883Z,83.70
2022-09-24T01:39:20.969Z,83.00
2022-09-24T01:42:25.296Z,83.00
2022-09-24T01:45:30.093Z,82.90
2022-09-24T01:48:33.123Z,83.10
2022-09-24T01:51:40.913Z,83.10
2022-09-24T01:54:44.184Z,82.60
2022-09-24T01:57:50.383Z,83.00
2022-09-24T02:00:58.092Z,82.80
2022-09-24T02:04:16.847Z,82.70
2022-09-24T02:07:30.253Z,82.60
2022-09-24T02:10:39.142Z,83.20
2022-09-24T02:14:05.042Z,83.00
2022-09-24T02:17:09.452Z,83.10
2022-09-24T02:20:16.416Z,82.70
2022-09-24T02:23:20.399Z,83.10
2022-09-24T02:26:22.617Z,82.50
2022-09-24T02:29:25.250Z,82.80
2022-09-24T02:32:30.939Z,82.90
2022-09-24T02:35:34.107Z,83.30
2022-09-24T02:38:36.058Z,82.70
2022-09-24T02:41:38.390Z,82.70
2022-09-24T02:44:40.443Z,82.80
2022-09-24T02:47:43.345Z,83.10
2022-09-24T02:50:45.824Z,82.90
2022-09-24T02:53:47.890Z,83.60
2022-09-24T02:56:49.958Z,83.60
2022-09-24T02:59:52.139Z,83.00
2022-09-24T03:02:54.572Z,82.60
2022-09-24T03:05:56.737Z,82.50
2022-09-24T03:08:58.881Z,83.60
2022-09-24T03:12:01.061Z,83.70
2022-09-24T03:15:03.699Z,84.40
2022-09-24T03:18:05.662Z,84.70
2022-09-24T03:21:12.338Z,84.70
2022-09-24T03:24:14.435Z,84.00
2022-09-24T03:30:27.039Z,84.30
2022-09-24T03:33:33.183Z,83.90
2022-09-24T03:36:35.218Z,84.10
2022-09-24T03:39:37.094Z,84.00
2022-09-24T03:42:39.076Z,83.60
2022-09-24T03:45:41.022Z,83.90
2022-09-24T03:48:43.790Z,83.20
2022-09-24T03:51:45.745Z,83.30
2022-09-24T03:54:47.729Z,83.60
2022-09-24T03:57:49.683Z,84.00
2022-09-24T04:00:53.234Z,84.60
2022-09-24T04:03:55.132Z,84.80
2022-09-24T04:06:57.522Z,84.20
2022-09-24T04:09:59.454Z,84.00
2022-09-24T04:13:01.550Z,84.60
2022-09-24T04:16:04.719Z,84.40
2022-09-24T04:19:06.724Z,84.00
2022-09-24T04:22:08.876Z,84.00
2022-09-24T04:25:14.695Z,83.80
2022-09-24T04:28:17.014Z,83.70
2022-09-24T04:31:19.558Z,83.70
2022-09-24T04:34:21.663Z,83.70
2022-09-24T04:37:23.616Z,83.80
2022-09-24T04:40:26.031Z,83.60
2022-09-24T04:43:28.034Z,83.90
2022-09-24T04:46:30.200Z,83.70
2022-09-24T04:49:33.095Z,83.40
2022-09-24T04:52:35.391Z,83.50
2022-09-24T04:55:38.775Z,83.70
2022-09-24T04:58:40.886Z,83.70
2022-09-24T05:01:42.924Z,84.70
2022-09-24T05:04:45.197Z,84.50
2022-09-24T05:07:47.200Z,84.40
2022-09-24T05:10:49.560Z,84.00
2022-09-24T05:13:51.734Z,84.00
2022-09-24T05:16:53.759Z,83.80
2022-09-24T05:19:56.679Z,84.10
2022-09-24T05:22:58.842Z,83.40
2022-09-24T05:26:00.830Z,83.50
2022-09-24T05:29:02.916Z,83.60
2022-09-24T05:32:07.086Z,83.80
2022-09-24T05:35:09.930Z,84.30
2022-09-24T05:38:11.859Z,84.40
2022-09-24T05:41:13.822Z,84.10
2022-09-24T05:44:15.991Z,83.60
2022-09-24T05:47:17.999Z,84.10
2022-09-24T05:50:19.981Z,84.40
2022-09-24T05:53:22.409Z,84.90
2022-09-24T05:56:24.413Z,84.30
2022-09-24T05:59:26.338Z,84.50
2022-09-24T06:02:28.391Z,84.10
2022-09-24T06:05:30.481Z,84.30
2022-09-24T06:08:32.696Z,84.90
2022-09-24T06:11:39.683Z,84.80
2022-09-24T06:14:43.142Z,84.70
2022-09-24T06:17:45.205Z,84.60
2022-09-24T06:20:47.226Z,84.60
2022-09-24T06:23:49.254Z,84.90
2022-09-24T06:26:51.393Z,84.30
2022-09-24T06:29:53.429Z,84.30
2022-09-24T06:32:55.761Z,84.20
2022-09-24T06:36:02.774Z,84.10
2022-09-24T06:39:04.760Z,83.70
2022-09-24T06:42:06.837Z,83.90
2022-09-24T06:45:09.945Z,84.10
2022-09-24T06:48:13.709Z,84.00
2022-09-24T06:51:15.777Z,84.20
2022-09-24T06:54:17.836Z,84.30
2022-09-24T06:57:19.819Z,84.20
2022-09-24T07:00:21.789Z,83.80
2022-09-24T07:03:23.865Z,83.40
2022-09-24T07:06:28.984Z,84.00
2022-09-24T07:09:30.972Z,83.70
2022-09-24T07:12:35.021Z,83.20
2022-09-24T07:15:37.027Z,83.30
2022-09-24T07:18:39.259Z,83.00
2022-09-24T07:21:41.250Z,83.10
2022-09-24T07:24:43.298Z,82.90
2022-09-24T07:27:46.103Z,83.30
2022-09-24T07:30:55.811Z,82.80
2022-09-24T07:33:57.778Z,82.70
2022-09-24T07:37:00.159Z,81.50
2022-09-24T07:40:04.735Z,82.20
2022-09-24T07:43:06.674Z,81.80
2022-09-24T07:46:08.978Z,81.80
2022-09-24T07:49:10.977Z,82.10
2022-09-24T07:52:13.035Z,81.30
2022-09-24T07:55:15.177Z,81.40
2022-09-24T07:58:17.177Z,82.00
2022-09-24T08:01:20.018Z,81.30
2022-09-24T08:04:22.072Z,80.70
2022-09-24T08:07:24.064Z,79.90
2022-09-24T08:10:27.645Z,81.40
2022-09-24T08:13:29.697Z,81.10
2022-09-24T08:16:31.787Z,81.60
2022-09-24T08:19:33.866Z,82.10
2022-09-24T08:22:35.785Z,80.90
2022-09-24T08:25:37.881Z,80.40
2022-09-24T08:28:40.929Z,79.80
2022-09-24T08:31:43.028Z,79.00
2022-09-24T08:34:45.122Z,78.50
2022-09-24T08:37:47.103Z,77.80
2022-09-24T08:41:16.227Z,74.70
2022-09-24T08:44:24.350Z,75.80
2022-09-24T08:47:46.318Z,74.20
2022-09-24T08:50:58.716Z,73.90
2022-09-24T08:54:11.299Z,74.80
2022-09-24T08:57:16.949Z,75.30
2022-09-24T09:00:18.955Z,75.80
2022-09-24T09:04:08.412Z,76.00
2022-09-24T09:07:21.483Z,76.20
2022-09-24T09:10:27.390Z,76.10
2022-09-24T09:13:49.614Z,76.80
2022-09-24T09:17:03.222Z,76.30
2022-09-24T09:20:11.781Z,76.20
2022-09-24T09:23:20.913Z,76.70
2022-09-24T09:26:25.232Z,77.20
2022-09-24T09:29:27.954Z,76.50
2022-09-24T09:33:02.116Z,77.20
2022-09-24T09:36:43.604Z,77.30
2022-09-24T09:39:49.443Z,77.70
2022-09-24T09:42:51.585Z,79.30
2022-09-24T09:46:10.355Z,80.60
2022-09-24T09:49:14.204Z,81.00
2022-09-24T09:52:20.222Z,81.00
2022-09-24T09:55:40.831Z,78.90
2022-09-24T09:58:45.624Z,79.00
2022-09-24T10:01:50.654Z,80.70
2022-09-24T10:04:55.288Z,80.20
2022-09-24T10:08:00.198Z,81.10
2022-09-24T10:11:03.342Z,79.40
2022-09-24T10:14:10.008Z,79.10
2022-09-24T10:17:16.387Z,81.10
2022-09-24T10:20:31.339Z,80.50
2022-09-24T10:23:37.798Z,80.50
2022-09-24T10:26:45.251Z,80.70
2022-09-24T10:29:47.998Z,79.50
2022-09-24T10:32:58.084Z,78.70
2022-09-24T10:36:08.518Z,76.90
2022-09-24T10:39:21.175Z,76.40
2022-09-24T10:42:25.497Z,77.90
2022-09-24T10:45:56.232Z,77.30
2022-09-24T10:49:12.187Z,75.90
2022-09-24T11:03:33.368Z,76.80
2022-09-24T11:07:08.982Z,76.70
2022-09-24T11:11:00.615Z,76.70
2022-09-24T11:14:31.284Z,75.70
2022-09-24T11:18:14.616Z,77.40
2022-09-24T11:21:26.926Z,78.40
2022-09-24T11:24:46.978Z,77.60
2022-09-24T11:28:13.596Z,77.10
2022-09-24T11:31:34.498Z,77.30
2022-09-24T11:34:54.801Z,75.60
2022-09-24T11:38:03.930Z,75.60
2022-09-24T11:41:30.209Z,74.80
2022-09-24T11:44:34.715Z,74.50
2022-09-24T11:47:39.615Z,74.10
2022-09-24T11:51:02.524Z,74.60
2022-09-24T11:54:19.921Z,74.10
2022-09-24T11:57:29.723Z,74.50
2022-09-24T12:00:38.591Z,74.00
2022-09-24T12:03:44.377Z,72.20
2022-09-24T12:06:54.737Z,71.90
2022-09-24T12:10:23.570Z,71.30
2022-09-24T12:13:37.963Z,71.90
2022-09-24T12:16:42.519Z,72.90
2022-09-24T12:19:55.940Z,72.70
2022-09-24T12:23:12.447Z,69.90
2022-09-24T12:26:17.631Z,70.80
2022-09-24T12:29:34.558Z,70.40
2022-09-24T12:32:55.135Z,71.80
2022-09-24T12:36:19.999Z,71.80
2022-09-24T12:39:26.638Z,72.60
2022-09-24T12:42:39.590Z,71.00
2022-09-24T12:45:41.526Z,71.40
2022-09-24T12:48:44.958Z,72.30
2022-09-24T12:51:46.829Z,72.30
2022-09-24T12:54:56.275Z,71.30
2022-09-24T12:58:06.362Z,72.00
2022-09-24T13:01:30.452Z,71.80
2022-09-24T13:04:32.483Z,71.40
2022-09-24T13:07:37.112Z,71.50
2022-09-24T13:10:38.922Z,71.50
2022-09-24T13:13:40.854Z,70.20
2022-09-24T13:16:47.748Z,69.70
2022-09-24T13:19:56.273Z,68.60
2022-09-24T13:23:19.856Z,68.50
2022-09-24T13:26:24.783Z,68.30
2022-09-24T13:29:26.881Z,68.30
2022-09-24T13:32:32.218Z,68.30
2022-09-24T13:35:41.805Z,69.80
2022-09-24T13:38:55.285Z,68.70
2022-09-24T13:42:26.031Z,68.00
2022-09-24T13:45:31.063Z,69.20
2022-09-24T13:48:39.188Z,70.30
2022-09-24T13:51:41.790Z,66.60
2022-09-24T13:54:49.929Z,68.10
2022-09-24T13:57:53.994Z,68.90
2022-09-24T14:00:57.453Z,69.40
2022-09-24T14:04:03.751Z,68.00
2022-09-24T14:07:05.972Z,69.10
2022-09-24T14:10:14.789Z,70.10
2022-09-24T14:13:19.518Z,70.40
2022-09-24T14:16:23.013Z,69.80
2022-09-24T14:19:25.001Z,69.10
2022-09-24T14:22:34.849Z,69.20
2022-09-24T14:25:38.533Z,69.30
2022-09-24T14:28:40.545Z,69.00
2022-09-24T14:31:45.363Z,69.10
2022-09-24T14:34:53.001Z,68.20
2022-09-24T14:38:16.571Z,68.20
2022-09-24T14:41:22.793Z,67.80
2022-09-24T14:44:28.662Z,69.50
2022-09-24T14:47:35.796Z,68.40
2022-09-24T14:50:41.000Z,69.00
2022-09-24T14:53:43.161Z,69.40
2022-09-24T14:56:45.930Z,71.90
2022-09-24T14:59:47.923Z,72.80
2022-09-24T15:03:11.837Z,73.40
2022-09-24T15:06:19.050Z,73.80
2022-09-24T15:09:29.957Z,73.40
2022-09-24T15:12:36.517Z,74.50
2022-09-24T15:15:39.066Z,74.40
2022-09-24T15:18:40.918Z,73.90
2022-09-24T15:21:43.897Z,75.20
2022-09-24T15:24:45.683Z,75.30
2022-09-24T15:27:48.533Z,75.30
2022-09-24T15:30:50.573Z,74.30
2022-09-24T15:33:52.652Z,74.00
2022-09-24T15:36:57.611Z,73.80
2022-09-24T15:40:05.563Z,74.20
2022-09-24T15:43:22.583Z,74.40
2022-09-24T15:46:27.063Z,74.70
2022-09-24T15:49:29.060Z,73.90
2022-09-24T15:52:33.076Z,73.70
2022-09-24T15:55:37.110Z,73.60
2022-09-24T15:58:40.111Z,74.30
2022-09-24T16:01:45.500Z,74.90
2022-09-24T16:04:47.567Z,75.10
2022-09-24T16:07:49.631Z,75.30
2022-09-24T16:10:52.829Z,75.70
2022-09-24T16:13:55.133Z,75.70
2022-09-24T16:16:57.563Z,75.70
2022-09-24T16:19:59.617Z,76.00
2022-09-24T16:23:01.810Z,76.10
2022-09-24T16:26:03.719Z,76.50
2022-09-24T16:29:06.866Z,76.80
2022-09-24T16:32:08.937Z,77.20
2022-09-24T16:35:11.072Z,77.80
2022-09-24T16:38:14.853Z,77.60
2022-09-24T16:41:19.523Z,78.20
2022-09-24T16:44:22.598Z,78.10
2022-09-24T16:47:24.601Z,78.60
2022-09-24T16:50:26.944Z,78.60
2022-09-24T16:53:28.908Z,78.90
2022-09-24T16:56:30.954Z,79.20
2022-09-24T16:59:33.447Z,79.60
2022-09-24T17:02:41.095Z,79.90
2022-09-24T17:05:43.304Z,80.70
2022-09-24T17:08:45.396Z,80.80
2022-09-24T17:11:47.555Z,81.00
2022-09-24T17:14:49.534Z,80.80
2022-09-24T17:17:51.474Z,80.90
2022-09-24T17:21:12.822Z,81.10
2022-09-24T17:24:19.170Z,81.50
2022-09-24T17:27:23.325Z,82.60
2022-09-24T17:30:25.378Z,83.40
2022-09-24T17:33:42.830Z,82.70
2022-09-24T17:36:45.993Z,82.30
2022-09-24T17:39:47.958Z,83.40
2022-09-24T17:42:50.074Z,85.00
2022-09-24T17:46:14.654Z,85.70
2022-09-24T17:49:20.164Z,86.30
2022-09-24T17:52:22.154Z,86.40
2022-09-24T17:55:24.083Z,86.80
2022-09-24T17:58:27.076Z,86.50
2022-09-24T18:01:33.081Z,86.90
2022-09-24T18:04:35.128Z,87.00
2022-09-24T18:07:36.995Z,87.60
2022-09-24T18:10:39.460Z,87.30
2022-09-24T18:13:41.429Z,87.70
2022-09-24T18:16:43.909Z,88.00
2022-09-24T18:19:45.817Z,86.80
2022-09-24T18:22:47.975Z,86.90
2022-09-24T18:25:49.866Z,86.20
2022-09-24T18:28:53.463Z,87.00
2022-09-24T18:31:56.017Z,87.00
2022-09-24T18:34:58.610Z,86.80
2022-09-24T18:38:01.023Z,86.70
2022-09-24T18:41:14.965Z,86.80
2022-09-24T18:44:17.292Z,86.00
2022-09-24T18:47:19.482Z,86.20
2022-09-24T18:50:21.658Z,86.60
2022-09-24T18:53:28.032Z,86.50
2022-09-24T18:56:30.929Z,86.80
2022-09-24T18:59:33.022Z,85.80
2022-09-24T19:02:35.325Z,85.80
2022-09-24T19:05:38.260Z,85.70
2022-09-24T19:08:40.302Z,85.60
2022-09-24T19:11:42.382Z,87.00
2022-09-24T19:14:44.413Z,87.30
2022-09-24T19:17:46.510Z,87.30
2022-09-24T19:20:48.795Z,86.60
2022-09-24T19:23:55.253Z,86.60
2022-09-24T19:26:57.607Z,86.50
2022-09-24T19:30:04.104Z,87.00
2022-09-24T19:33:06.477Z,86.20
2022-09-24T19:36:10.421Z,86.30
2022-09-24T19:39:17.632Z,86.60
2022-09-24T19:42:21.939Z,86.20
2022-09-24T19:45:24.039Z,86.00
2022-09-24T19:48:31.676Z,85.90
2022-09-24T19:51:35.755Z,86.40
2022-09-24T19:54:39.498Z,85.80
2022-09-24T19:57:41.676Z,85.90
2022-09-24T20:00:43.722Z,86.20
2022-09-24T20:03:46.116Z,86.60
2022-09-24T20:06:48.204Z,86.50
2022-09-24T20:09:50.539Z,86.70
2022-09-24T20:12:52.693Z,86.70
2022-09-24T20:15:59.037Z,87.50
2022-09-24T20:19:02.315Z,87.50
2022-09-24T20:22:08.506Z,87.10
2022-09-24T20:25:10.883Z,86.10
2022-09-24T20:28:14.400Z,85.60
2022-09-24T20:31:17.465Z,86.00
2022-09-24T20:34:28.074Z,85.80
2022-09-24T20:37:30.070Z,86.60
2022-09-24T20:40:32.386Z,86.90
2022-09-24T20:43:34.742Z,87.20
2022-09-24T20:46:36.721Z,87.30
2022-09-24T20:49:38.851Z,87.80
2022-09-24T20:52:40.797Z,87.90
2022-09-24T20:55:42.741Z,88.30
2022-09-24T20:58:45.192Z,88.40
2022-09-24T21:01:47.303Z,88.20
2022-09-24T21:04:49.723Z,87.90
2022-09-24T21:07:51.711Z,88.30
2022-09-24T21:11:04.363Z,88.40
2022-09-24T21:14:10.898Z,88.20
2022-09-24T21:17:12.911Z,88.30
2022-09-24T21:20:14.976Z,88.30
2022-09-24T21:23:16.999Z,87.60
2022-09-24T21:26:24.353Z,88.10
2022-09-24T21:29:26.462Z,87.90
2022-09-24T21:32:28.466Z,87.20
2022-09-24T21:35:30.623Z,87.50
2022-09-24T21:38:33.083Z,87.50
2022-09-24T21:41:36.955Z,87.00
2022-09-24T21:44:39.257Z,87.30
2022-09-24T21:47:41.333Z,87.20
2022-09-24T21:50:43.435Z,87.70
2022-09-24T21:53:46.434Z,87.10
2022-09-24T21:56:49.242Z,87.90
2022-09-24T21:59:51.267Z,87.50
2022-09-24T22:02:53.277Z,87.20
2022-09-24T22:05:55.329Z,86.90
2022-09-24T22:09:06.191Z,86.90
2022-09-24T22:12:08.127Z,87.20
2022-09-24T22:15:10.354Z,87.70
2022-09-24T22:18:12.379Z,87.80
2022-09-24T22:21:15.210Z,88.20
2022-09-24T22:24:17.320Z,87.50
2022-09-24T22:27:19.403Z,87.60
2022-09-24T22:30:21.350Z,86.90
2022-09-24T22:33:23.982Z,87.40
2022-09-24T22:36:27.926Z,87.60
2022-09-24T22:39:29.871Z,87.30
2022-09-24T22:42:31.970Z,87.50
2022-09-24T22:45:33.967Z,87.60
2022-09-24T22:48:36.484Z,88.10
2022-09-24T22:51:38.556Z,88.50
2022-09-24T22:54:40.634Z,88.40
2022-09-24T22:57:42.648Z,88.30
2022-09-24T23:00:44.680Z,88.40
2022-09-24T23:03:46.646Z,89.00
2022-09-24T23:06:48.580Z,88.90
2022-09-24T23:09:50.564Z,88.70
2022-09-24T23:12:52.599Z,88.90
2022-09-24T23:15:54.698Z,88.90
2022-09-24T23:18:59.270Z,88.80
2022-09-24T23:22:01.247Z,88.90
2022-09-24T23:25:03.259Z,88.90
2022-09-24T23:28:05.295Z,88.90
2022-09-24T23:31:11.151Z,89.10
2022-09-24T23:34:13.730Z,89.40
2022-09-24T23:37:15.704Z,89.10
2022-09-24T23:40:17.692Z,89.20
2022-09-24T23:43:20.603Z,89.40
2022-09-24T23:46:22.697Z,89.30
2022-09-24T23:49:24.746Z,89.20
2022-09-24T23:52:26.745Z,89.30
2022-09-24T23:55:32.072Z,89.50
2022-09-24T23:58:34.475Z,89.20
